createdAt,value
2017-09-18T00:02:34.862Z,40.24
2017-09-18T00:17:34.868Z,40.63
2017-09-18T00:32:36.014Z,40.90
2017-09-18T00:47:34.822Z,41.12
2017-09-18T01:02:35.311Z,41.45
2017-09-18T01:17:35.260Z,41.91
2017-09-18T01:32:35.465Z,42.14
2017-09-18T01:47:35.260Z,42.29
2017-09-18T02:02:34.680Z,42.53
2017-09-18T02:17:34.645Z,42.80
2017-09-18T02:32:34.790Z,42.98
2017-09-18T02:47:34.568Z,43.72
2017-09-18T03:02:35.066Z,45.38
2017-09-18T03:17:35.034Z,47.03
2017-09-18T03:32:35.049Z,48.28
2017-09-18T03:47:35.005Z,49.15
2017-09-18T04:02:36.491Z,49.91
2017-09-18T04:17:34.654Z,50.49
2017-09-18T04:32:34.408Z,50.97
2017-09-18T04:47:34.423Z,50.57
2017-09-18T05:02:35.791Z,49.35
2017-09-18T05:17:35.055Z,47.60
2017-09-18T05:32:34.811Z,45.27
2017-09-18T05:47:34.723Z,43.27
2017-09-18T06:02:35.195Z,40.86
2017-09-18T06:17:35.123Z,38.81
2017-09-18T06:32:35.147Z,36.52
2017-09-18T06:47:35.106Z,34.57
2017-09-18T07:02:34.576Z,33.37
2017-09-18T07:17:35.547Z,32.07
2017-09-18T07:32:34.561Z,31.04
2017-09-18T07:47:34.516Z,29.93
2017-09-18T08:02:35.017Z,28.94
2017-09-18T08:17:35.052Z,28.14
2017-09-18T08:32:34.929Z,27.71
2017-09-18T08:47:34.935Z,27.11
2017-09-18T09:02:34.387Z,26.53
2017-09-18T09:17:34.556Z,26.61
2017-09-18T09:32:34.314Z,26.39
2017-09-18T09:47:35.344Z,26.91
2017-09-18T10:02:34.756Z,27.26
2017-09-18T10:17:34.718Z,26.90
2017-09-18T10:32:34.699Z,26.51
2017-09-18T10:47:34.618Z,26.84
2017-09-18T11:02:35.288Z,27.28
2017-09-18T11:17:35.052Z,27.47
2017-09-18T11:32:35.026Z,27.77
2017-09-18T11:47:35.144Z,28.11
2017-09-18T12:02:34.521Z,28.76
2017-09-18T12:17:34.533Z,29.05
2017-09-18T12:32:34.454Z,29.51
2017-09-18T12:47:34.411Z,29.95
2017-09-18T13:02:34.895Z,30.38
2017-09-18T13:17:34.873Z,30.82
2017-09-18T13:32:34.830Z,31.14
2017-09-18T13:47:34.875Z,31.42
2017-09-18T14:02:34.280Z,31.49
2017-09-18T14:17:34.247Z,31.87
2017-09-18T14:32:34.237Z,31.99
2017-09-18T14:47:34.246Z,32.28
2017-09-18T15:02:35.881Z,32.65
2017-09-18T15:17:34.685Z,33.07
2017-09-18T15:32:34.668Z,33.45
2017-09-18T15:47:34.705Z,38.89
2017-09-18T16:02:35.089Z,37.13
2017-09-18T16:17:35.054Z,37.84
2017-09-18T16:32:35.045Z,37.62
2017-09-18T16:47:35.424Z,38.27
2017-09-18T17:02:34.495Z,38.55
2017-09-18T17:17:34.426Z,38.18
2017-09-18T17:32:34.499Z,37.49
2017-09-18T17:47:35.457Z,38.27
2017-09-18T18:02:34.895Z,38.28
2017-09-18T18:17:34.902Z,37.83
2017-09-18T18:32:34.846Z,38.83
2017-09-18T18:47:34.865Z,39.11
2017-09-18T19:02:34.338Z,39.55
2017-09-18T19:17:34.335Z,40.15
2017-09-18T19:32:36.247Z,40.01
2017-09-18T19:47:35.205Z,40.23
2017-09-18T20:02:36.641Z,40.33
2017-09-18T20:17:34.641Z,40.01
2017-09-18T20:32:34.871Z,40.15
2017-09-18T20:47:34.534Z,40.31
2017-09-18T21:02:35.126Z,40.44
2017-09-18T21:17:35.010Z,40.19
2017-09-18T21:32:35.016Z,40.04
2017-09-18T21:47:34.894Z,39.72
2017-09-18T22:02:35.417Z,40.03
2017-09-18T22:17:34.383Z,40.30
2017-09-18T22:32:36.360Z,40.54
2017-09-18T22:47:36.300Z,40.84
2017-09-18T23:02:35.248Z,41.32
2017-09-18T23:17:35.265Z,41.44
2017-09-18T23:32:35.155Z,41.67
2017-09-18T23:47:34.689Z,41.62
